Terminal Aerodrome Forecast
Issued by NWS

Home | Current Version | Previous Version | Text Only | Print | Product List | Glossary On
Versions: 1 2 3 4 5 6 7 8 9 10 11 12 13 14 15 16 17 18 19 20 21 22 23 24 25 26 27 28
000
FTAK31 PANC 110742 AAA
TAFASN
TAF AMD
PASN 110742Z 1108/1206 14010KT P6SM VCSH OVC030
     FM111800 13015KT P6SM -SHSN OVC025
     FM120300 14020KT 5SM -SN BKN015 OVC025=

USA.gov is the U.S. government's official web portal to all federal, state and local government web resources and services.